sensor_id;sensor_type;location;lat;lon;timestamp;pressure;altitude;pressure_sealevel;temperature;humidity
67015;BME280;1033;52.560;13.374;2023-04-07T00:00:47;101459.88;;;3.26;64.24
67015;BME280;1033;52.560;13.374;2023-04-07T00:03:17;101451.56;;;3.20;64.12
67015;BME280;1033;52.560;13.374;2023-04-07T00:05:46;101450.75;;;3.10;64.42
67015;BME280;1033;52.560;13.374;2023-04-07T00:08:16;101455.78;;;3.03;64.84
67015;BME280;1033;52.560;13.374;2023-04-07T00:10:46;101452.81;;;2.96;65.11
67015;BME280;1033;52.560;13.374;2023-04-07T00:13:15;101458.47;;;2.93;65.42
67015;BME280;1033;52.560;13.374;2023-04-07T00:15:45;101453.66;;;2.87;65.40
67015;BME280;1033;52.560;13.374;2023-04-07T00:18:14;101457.88;;;2.80;65.90
67015;BME280;1033;52.560;13.374;2023-04-07T00:20:43;101453.66;;;2.78;65.87
67015;BME280;1033;52.560;13.374;2023-04-07T00:23:12;101446.75;;;2.75;66.18
67015;BME280;1033;52.560;13.374;2023-04-07T00:25:41;101445.75;;;2.76;66.24
67015;BME280;1033;52.560;13.374;2023-04-07T00:28:10;101440.81;;;2.72;66.42
67015;BME280;1033;52.560;13.374;2023-04-07T00:30:39;101445.50;;;2.79;66.21
67015;BME280;1033;52.560;13.374;2023-04-07T00:33:09;101455.38;;;2.98;65.87
67015;BME280;1033;52.560;13.374;2023-04-07T00:35:38;101447.75;;;2.93;65.88
67015;BME280;1033;52.560;13.374;2023-04-07T00:38:07;101446.34;;;2.89;65.79
67015;BME280;1033;52.560;13.374;2023-04-07T00:40:37;101444.78;;;2.87;66.13
67015;BME280;1033;52.560;13.374;2023-04-07T00:43:06;101447.19;;;2.80;66.55
67015;BME280;1033;52.560;13.374;2023-04-07T00:45:35;101439.00;;;2.72;66.73
67015;BME280;1033;52.560;13.374;2023-04-07T00:48:05;101439.28;;;2.69;66.56
67015;BME280;1033;52.560;13.374;2023-04-07T00:50:35;101434.22;;;2.66;66.92
67015;BME280;1033;52.560;13.374;2023-04-07T00:53:05;101433.81;;;2.61;66.94
67015;BME280;1033;52.560;13.374;2023-04-07T00:55:34;101440.13;;;2.60;67.27
67015;BME280;1033;52.560;13.374;2023-04-07T00:58:03;101439.28;;;2.59;67.18
67015;BME280;1033;52.560;13.374;2023-04-07T01:00:34;101435.19;;;2.55;67.32
67015;BME280;1033;52.560;13.374;2023-04-07T01:03:08;101428.28;;;2.53;67.43
67015;BME280;1033;52.560;13.374;2023-04-07T01:05:45;101433.09;;;2.59;67.68
67015;BME280;1033;52.560;13.374;2023-04-07T01:08:19;101423.22;;;2.50;67.63
67015;BME280;1033;52.560;13.374;2023-04-07T01:10:55;101423.53;;;2.56;67.86
67015;BME280;1033;52.560;13.374;2023-04-07T01:13:29;101417.44;;;2.45;67.82
67015;BME280;1033;52.560;13.374;2023-04-07T01:16:12;101423.44;;;2.37;68.31
67015;BME280;1033;52.560;13.374;2023-04-07T01:18:51;101413.34;;;2.41;68.19
67015;BME280;1033;52.560;13.374;2023-04-07T01:21:25;101409.41;;;2.35;68.29
67015;BME280;1033;52.560;13.374;2023-04-07T01:24:07;101416.44;;;2.36;68.76
67015;BME280;1033;52.560;13.374;2023-04-07T01:26:43;101401.56;;;2.53;68.30
67015;BME280;1033;52.560;13.374;2023-04-07T01:29:28;101400.44;;;2.46;68.17
67015;BME280;1033;52.560;13.374;2023-04-07T01:32:03;101402.25;;;2.36;68.30
67015;BME280;1033;52.560;13.374;2023-04-07T01:34:35;101410.22;;;2.26;68.52
67015;BME280;1033;52.560;13.374;2023-04-07T01:37:04;101408.53;;;2.25;68.58
67015;BME280;1033;52.560;13.374;2023-04-07T01:39:35;101409.91;;;2.19;69.01
67015;BME280;1033;52.560;13.374;2023-04-07T01:42:06;101400.63;;;2.14;69.00
67015;BME280;1033;52.560;13.374;2023-04-07T01:44:37;101403.16;;;2.15;69.02
67015;BME280;1033;52.560;13.374;2023-04-07T01:47:06;101409.03;;;2.09;69.23
67015;BME280;1033;52.560;13.374;2023-04-07T01:49:36;101402.56;;;2.02;69.35
67015;BME280;1033;52.560;13.374;2023-04-07T01:52:07;101407.91;;;2.02;69.33
67015;BME280;1033;52.560;13.374;2023-04-07T01:54:37;101400.00;;;2.01;69.42
67015;BME280;1033;52.560;13.374;2023-04-07T01:57:07;101405.34;;;2.01;69.49
67015;BME280;1033;52.560;13.374;2023-04-07T01:59:38;101403.81;;;1.98;69.75
67015;BME280;1033;52.560;13.374;2023-04-07T02:02:07;101412.22;;;2.03;69.64
67015;BME280;1033;52.560;13.374;2023-04-07T02:04:43;101412.50;;;2.00;69.94
67015;BME280;1033;52.560;13.374;2023-04-07T02:07:23;101399.31;;;2.08;69.30
67015;BME280;1033;52.560;13.374;2023-04-07T02:09:57;101404.19;;;1.94;69.77
67015;BME280;1033;52.560;13.374;2023-04-07T02:12:27;101392.50;;;1.85;70.43
67015;BME280;1033;52.560;13.374;2023-04-07T02:15:10;101389.50;;;2.09;69.79
67015;BME280;1033;52.560;13.374;2023-04-07T02:17:45;101396.22;;;2.03;69.74
67015;BME280;1033;52.560;13.374;2023-04-07T02:20:16;101387.47;;;1.92;69.69
67015;BME280;1033;52.560;13.374;2023-04-07T02:22:46;101389.19;;;1.93;69.77
67015;BME280;1033;52.560;13.374;2023-04-07T02:25:22;101393.22;;;1.87;69.73
67015;BME280;1033;52.560;13.374;2023-04-07T02:27:54;101385.38;;;1.95;69.88
67015;BME280;1033;52.560;13.374;2023-04-07T02:30:25;101385.47;;;1.84;69.86
67015;BME280;1033;52.560;13.374;2023-04-07T02:32:55;101382.78;;;1.84;70.01
67015;BME280;1033;52.560;13.374;2023-04-07T02:35:24;101384.31;;;1.77;70.46
67015;BME280;1033;52.560;13.374;2023-04-07T02:37:53;101384.03;;;1.80;70.59
67015;BME280;1033;52.560;13.374;2023-04-07T02:40:22;101380.53;;;1.80;70.29
67015;BME280;1033;52.560;13.374;2023-04-07T02:42:53;101374.97;;;1.92;70.65
67015;BME280;1033;52.560;13.374;2023-04-07T02:45:24;101382.78;;;1.84;70.58
67015;BME280;1033;52.560;13.374;2023-04-07T02:47:53;101372.13;;;1.84;70.47
67015;BME280;1033;52.560;13.374;2023-04-07T02:50:22;101376.94;;;1.90;70.47
67015;BME280;1033;52.560;13.374;2023-04-07T02:52:52;101382.09;;;1.82;70.30
67015;BME280;1033;52.560;13.374;2023-04-07T02:55:21;101388.13;;;1.84;70.27
67015;BME280;1033;52.560;13.374;2023-04-07T02:57:50;101382.53;;;1.87;70.23
67015;BME280;1033;52.560;13.374;2023-04-07T03:00:34;101380.53;;;1.80;70.40
67015;BME280;1033;52.560;13.374;2023-04-07T03:03:08;101387.13;;;1.75;70.41
67015;BME280;1033;52.560;13.374;2023-04-07T03:05:40;101378.81;;;1.69;70.57
67015;BME280;1033;52.560;13.374;2023-04-07T03:08:11;101385.81;;;1.70;70.60
67015;BME280;1033;52.560;13.374;2023-04-07T03:10:40;101376.97;;;1.69;70.59
67015;BME280;1033;52.560;13.374;2023-04-07T03:13:09;101382.59;;;1.66;70.81
67015;BME280;1033;52.560;13.374;2023-04-07T03:15:41;101377.66;;;1.62;71.07
67015;BME280;1033;52.560;13.374;2023-04-07T03:18:11;101377.66;;;1.62;70.90
67015;BME280;1033;52.560;13.374;2023-04-07T03:20:42;101370.63;;;1.61;70.82
67015;BME280;1033;52.560;13.374;2023-04-07T03:23:12;101372.59;;;1.59;71.11
67015;BME280;1033;52.560;13.374;2023-04-07T03:25:42;101367.78;;;1.53;71.07
67015;BME280;1033;52.560;13.374;2023-04-07T03:28:14;101369.47;;;1.54;71.05
67015;BME280;1033;52.560;13.374;2023-04-07T03:30:44;101368.50;;;1.55;71.08
67015;BME280;1033;52.560;13.374;2023-04-07T03:33:13;101365.56;;;1.58;71.39
67015;BME280;1033;52.560;13.374;2023-04-07T03:35:42;101366.84;;;1.63;71.17
67015;BME280;1033;52.560;13.374;2023-04-07T03:38:11;101357.16;;;1.62;71.18
67015;BME280;1033;52.560;13.374;2023-04-07T03:40:41;101365.47;;;1.69;71.41
67015;BME280;1033;52.560;13.374;2023-04-07T03:43:10;101358.44;;;1.68;70.64
67015;BME280;1033;52.560;13.374;2023-04-07T03:45:51;101356.88;;;1.65;70.85
67015;BME280;1033;52.560;13.374;2023-04-07T03:48:22;101360.28;;;1.67;70.74
67015;BME280;1033;52.560;13.374;2023-04-07T03:51:17;101361.13;;;1.68;70.81
67015;BME280;1033;52.560;13.374;2023-04-07T03:53:48;101358.44;;;1.68;70.96
67015;BME280;1033;52.560;13.374;2023-04-07T03:56:47;101356.22;;;1.73;71.05
67015;BME280;1033;52.560;13.374;2023-04-07T03:59:21;101357.91;;;1.74;70.99
67015;BME280;1033;52.560;13.374;2023-04-07T04:01:57;101353.56;;;1.73;70.97
67015;BME280;1033;52.560;13.374;2023-04-07T04:04:27;101357.19;;;1.72;71.11
67015;BME280;1033;52.560;13.374;2023-04-07T04:06:57;101361.13;;;1.68;70.93
67015;BME280;1033;52.560;13.374;2023-04-07T04:09:40;101366.16;;;1.71;70.68
67015;BME280;1033;52.560;13.374;2023-04-07T04:12:10;101358.53;;;1.57;70.81
67015;BME280;1033;52.560;13.374;2023-04-07T04:14:48;101359.59;;;1.45;71.32
67015;BME280;1033;52.560;13.374;2023-04-07T04:17:19;101355.69;;;1.49;71.38
67015;BME280;1033;52.560;13.374;2023-04-07T04:19:49;101355.16;;;1.55;71.23
67015;BME280;1033;52.560;13.374;2023-04-07T04:22:26;101367.31;;;1.48;71.34
67015;BME280;1033;52.560;13.374;2023-04-07T04:24:57;101358.47;;;1.47;72.05
67015;BME280;1033;52.560;13.374;2023-04-07T04:27:27;101355.53;;;1.50;71.87
67015;BME280;1033;52.560;13.374;2023-04-07T04:30:04;101358.59;;;1.46;71.80
67015;BME280;1033;52.560;13.374;2023-04-07T04:32:43;101355.69;;;1.49;71.68
67015;BME280;1033;52.560;13.374;2023-04-07T04:35:12;101361.72;;;1.51;71.74
67015;BME280;1033;52.560;13.374;2023-04-07T04:37:51;101357.56;;;1.58;71.65
67015;BME280;1033;52.560;13.374;2023-04-07T04:40:20;101358.53;;;1.57;71.73
67015;BME280;1033;52.560;13.374;2023-04-07T04:42:50;101358.97;;;1.62;71.77
67015;BME280;1033;52.560;13.374;2023-04-07T04:45:21;101363.63;;;1.69;71.32
67015;BME280;1033;52.560;13.374;2023-04-07T04:47:52;101365.78;;;1.75;70.94
67015;BME280;1033;52.560;13.374;2023-04-07T04:50:21;101365.94;;;1.74;71.07
67015;BME280;1033;52.560;13.374;2023-04-07T04:52:50;101370.13;;;1.77;71.14
67015;BME280;1033;52.560;13.374;2023-04-07T04:55:22;101371.56;;;1.81;71.01
67015;BME280;1033;52.560;13.374;2023-04-07T04:57:53;101370.97;;;1.77;70.61
67015;BME280;1033;52.560;13.374;2023-04-07T05:00:33;101376.03;;;1.80;70.90
67015;BME280;1033;52.560;13.374;2023-04-07T05:03:07;101373.13;;;1.83;70.68
67015;BME280;1033;52.560;13.374;2023-04-07T05:05:39;101365.06;;;2.13;70.28
67015;BME280;1033;52.560;13.374;2023-04-07T05:08:10;101375.78;;;2.33;69.18
67015;BME280;1033;52.560;13.374;2023-04-07T05:10:40;101379.69;;;2.19;69.13
67015;BME280;1033;52.560;13.374;2023-04-07T05:13:13;101373.34;;;2.10;69.63
67015;BME280;1033;52.560;13.374;2023-04-07T05:15:42;101377.53;;;2.03;69.68
67015;BME280;1033;52.560;13.374;2023-04-07T05:18:14;101380.19;;;2.03;69.47
67015;BME280;1033;52.560;13.374;2023-04-07T05:20:43;101378.13;;;2.07;69.90
67015;BME280;1033;52.560;13.374;2023-04-07T05:23:12;101382.09;;;2.12;69.89
67015;BME280;1033;52.560;13.374;2023-04-07T05:25:42;101381.94;;;2.24;69.32
67015;BME280;1033;52.560;13.374;2023-04-07T05:28:11;101385.50;;;2.34;69.23
67015;BME280;1033;52.560;13.374;2023-04-07T05:30:40;101373.56;;;2.57;68.89
67015;BME280;1033;52.560;13.374;2023-04-07T05:33:09;101372.59;;;2.68;68.40
67015;BME280;1033;52.560;13.374;2023-04-07T05:35:46;101370.09;;;2.85;67.51
67015;BME280;1033;52.560;13.374;2023-04-07T05:38:15;101376.84;;;2.99;66.97
67015;BME280;1033;52.560;13.374;2023-04-07T05:40:45;101372.91;;;3.03;66.85
67015;BME280;1033;52.560;13.374;2023-04-07T05:43:20;101369.38;;;3.02;66.92
67015;BME280;1033;52.560;13.374;2023-04-07T05:45:49;101365.78;;;3.40;66.24
67015;BME280;1033;52.560;13.374;2023-04-07T05:48:20;101364.69;;;3.43;66.08
67015;BME280;1033;52.560;13.374;2023-04-07T05:50:50;101367.47;;;3.51;65.14
67015;BME280;1033;52.560;13.374;2023-04-07T05:53:20;101374.63;;;3.60;65.52
67015;BME280;1033;52.560;13.374;2023-04-07T05:55:49;101376.47;;;3.50;65.75
67015;BME280;1033;52.560;13.374;2023-04-07T05:58:41;101368.56;;;3.68;65.54
67015;BME280;1033;52.560;13.374;2023-04-07T06:01:11;101379.88;;;3.52;65.80
67015;BME280;1033;52.560;13.374;2023-04-07T06:03:40;101373.34;;;3.64;65.59
67015;BME280;1033;52.560;13.374;2023-04-07T06:06:15;101382.06;;;3.66;65.95
67015;BME280;1033;52.560;13.374;2023-04-07T06:08:45;101378.53;;;3.75;65.98
67015;BME280;1033;52.560;13.374;2023-04-07T06:11:14;101379.81;;;3.71;65.90
67015;BME280;1033;52.560;13.374;2023-04-07T06:13:43;101377.28;;;3.60;65.79
67015;BME280;1033;52.560;13.374;2023-04-07T06:16:13;101388.47;;;3.46;66.73
67015;BME280;1033;52.560;13.374;2023-04-07T06:18:44;101379.56;;;3.55;66.77
67015;BME280;1033;52.560;13.374;2023-04-07T06:21:15;101386.44;;;3.67;66.82
67015;BME280;1033;52.560;13.374;2023-04-07T06:23:44;101390.22;;;3.74;66.88
67015;BME280;1033;52.560;13.374;2023-04-07T06:26:13;101392.13;;;3.91;66.28
67015;BME280;1033;52.560;13.374;2023-04-07T06:28:42;101389.28;;;3.93;66.36
67015;BME280;1033;52.560;13.374;2023-04-07T06:31:11;101390.63;;;3.79;66.77
67015;BME280;1033;52.560;13.374;2023-04-07T06:33:40;101398.97;;;4.04;66.23
67015;BME280;1033;52.560;13.374;2023-04-07T06:36:09;101396.00;;;4.07;66.60
67015;BME280;1033;52.560;13.374;2023-04-07T06:38:39;101398.69;;;4.34;65.85
67015;BME280;1033;52.560;13.374;2023-04-07T06:41:08;101404.34;;;4.04;66.35
67015;BME280;1033;52.560;13.374;2023-04-07T06:43:43;101402.19;;;4.07;66.90
67015;BME280;1033;52.560;13.374;2023-04-07T06:46:12;101394.91;;;4.00;67.33
67015;BME280;1033;52.560;13.374;2023-04-07T06:48:41;101396.69;;;4.09;67.40
67015;BME280;1033;52.560;13.374;2023-04-07T06:51:10;101398.41;;;4.10;67.05
67015;BME280;1033;52.560;13.374;2023-04-07T06:53:40;101390.81;;;4.05;67.56
67015;BME280;1033;52.560;13.374;2023-04-07T06:56:11;101393.97;;;4.18;67.18
67015;BME280;1033;52.560;13.374;2023-04-07T06:58:40;101395.09;;;4.25;67.20
67015;BME280;1033;52.560;13.374;2023-04-07T07:01:09;101392.22;;;4.27;66.66
67015;BME280;1033;52.560;13.374;2023-04-07T07:03:38;101394.84;;;4.36;66.61
67015;BME280;1033;52.560;13.374;2023-04-07T07:06:07;101399.56;;;4.52;66.02
67015;BME280;1033;52.560;13.374;2023-04-07T07:08:37;101397.84;;;4.78;65.65
67015;BME280;1033;52.560;13.374;2023-04-07T07:11:07;101394.69;;;4.83;64.71
67015;BME280;1033;52.560;13.374;2023-04-07T07:13:36;101403.72;;;4.82;65.37
67015;BME280;1033;52.560;13.374;2023-04-07T07:16:06;101398.69;;;4.97;64.26
67015;BME280;1033;52.560;13.374;2023-04-07T07:18:35;101390.34;;;4.82;63.41
67015;BME280;1033;52.560;13.374;2023-04-07T07:21:04;101401.88;;;4.65;62.98
67015;BME280;1033;52.560;13.374;2023-04-07T07:23:33;101400.41;;;4.70;62.57
67015;BME280;1033;52.560;13.374;2023-04-07T07:26:04;101406.16;;;4.75;61.04
67015;BME280;1033;52.560;13.374;2023-04-07T07:28:35;101403.13;;;4.88;61.31
67015;BME280;1033;52.560;13.374;2023-04-07T07:31:08;101402.28;;;5.05;59.12
67015;BME280;1033;52.560;13.374;2023-04-07T07:33:39;101402.91;;;5.43;57.42
67015;BME280;1033;52.560;13.374;2023-04-07T07:36:10;101403.50;;;5.54;56.32
67015;BME280;1033;52.560;13.374;2023-04-07T07:38:39;101411.56;;;5.54;54.97
67015;BME280;1033;52.560;13.374;2023-04-07T07:41:09;101406.91;;;5.56;54.32
67015;BME280;1033;52.560;13.374;2023-04-07T07:43:39;101409.03;;;5.79;53.54
67015;BME280;1033;52.560;13.374;2023-04-07T07:46:08;101420.81;;;6.03;53.00
67015;BME280;1033;52.560;13.374;2023-04-07T07:48:37;101414.56;;;5.95;50.91
67015;BME280;1033;52.560;13.374;2023-04-07T07:51:06;101413.78;;;5.85;51.71
67015;BME280;1033;52.560;13.374;2023-04-07T07:53:35;101415.28;;;6.05;51.03
67015;BME280;1033;52.560;13.374;2023-04-07T07:56:04;101419.34;;;6.17;50.09
67015;BME280;1033;52.560;13.374;2023-04-07T07:58:38;101418.59;;;6.33;48.85
67015;BME280;1033;52.560;13.374;2023-04-07T08:01:07;101415.22;;;6.31;49.19
67015;BME280;1033;52.560;13.374;2023-04-07T08:03:36;101416.84;;;6.66;49.17
67015;BME280;1033;52.560;13.374;2023-04-07T08:06:05;101413.22;;;6.99;48.92
67015;BME280;1033;52.560;13.374;2023-04-07T08:08:35;101413.06;;;7.01;48.68
67015;BME280;1033;52.560;13.374;2023-04-07T08:11:04;101414.50;;;6.79;48.43
67015;BME280;1033;52.560;13.374;2023-04-07T08:13:33;101415.19;;;6.73;48.59
67015;BME280;1033;52.560;13.374;2023-04-07T08:16:04;101422.47;;;6.38;47.77
67015;BME280;1033;52.560;13.374;2023-04-07T08:18:33;101423.00;;;6.50;47.41
67015;BME280;1033;52.560;13.374;2023-04-07T08:21:04;101428.03;;;6.45;47.07
67015;BME280;1033;52.560;13.374;2023-04-07T08:23:33;101429.25;;;6.59;45.82
67015;BME280;1033;52.560;13.374;2023-04-07T08:26:02;101421.81;;;6.44;45.13
67015;BME280;1033;52.560;13.374;2023-04-07T08:28:31;101418.94;;;6.38;45.85
67015;BME280;1033;52.560;13.374;2023-04-07T08:31:00;101418.50;;;6.59;45.47
67015;BME280;1033;52.560;13.374;2023-04-07T08:33:30;101420.56;;;6.73;45.56
67015;BME280;1033;52.560;13.374;2023-04-07T08:35:59;101425.91;;;6.57;46.01
67015;BME280;1033;52.560;13.374;2023-04-07T08:38:28;101422.25;;;6.74;45.38
67015;BME280;1033;52.560;13.374;2023-04-07T08:41:01;101426.97;;;6.72;45.09
67015;BME280;1033;52.560;13.374;2023-04-07T08:43:32;101419.19;;;6.61;44.97
67015;BME280;1033;52.560;13.374;2023-04-07T08:46:13;101421.38;;;6.73;44.49
67015;BME280;1033;52.560;13.374;2023-04-07T08:48:46;101431.00;;;6.76;44.61
67015;BME280;1033;52.560;13.374;2023-04-07T08:51:26;101428.00;;;6.87;45.29
67015;BME280;1033;52.560;13.374;2023-04-07T08:54:02;101430.38;;;7.14;45.45
67015;BME280;1033;52.560;13.374;2023-04-07T08:56:33;101443.34;;;7.11;44.57
67015;BME280;1033;52.560;13.374;2023-04-07T08:59:03;101433.00;;;6.74;44.77
67015;BME280;1033;52.560;13.374;2023-04-07T09:01:35;101439.38;;;6.65;43.82
67015;BME280;1033;52.560;13.374;2023-04-07T09:04:06;101442.97;;;6.89;44.66
67015;BME280;1033;52.560;13.374;2023-04-07T09:06:36;101448.50;;;6.80;44.90
67015;BME280;1033;52.560;13.374;2023-04-07T09:09:05;101440.97;;;6.91;44.45
67015;BME280;1033;52.560;13.374;2023-04-07T09:11:35;101442.75;;;6.75;45.52
67015;BME280;1033;52.560;13.374;2023-04-07T09:14:05;101450.97;;;6.73;46.22
67015;BME280;1033;52.560;13.374;2023-04-07T09:16:34;101449.47;;;6.71;46.41
67015;BME280;1033;52.560;13.374;2023-04-07T09:19:05;101448.38;;;6.47;47.93
67015;BME280;1033;52.560;13.374;2023-04-07T09:21:47;101446.25;;;6.25;48.92
67015;BME280;1033;52.560;13.374;2023-04-07T09:24:21;101435.91;;;6.38;48.96
67015;BME280;1033;52.560;13.374;2023-04-07T09:26:50;101439.97;;;6.42;48.18
67015;BME280;1033;52.560;13.374;2023-04-07T09:29:24;101437.56;;;6.31;48.20
67015;BME280;1033;52.560;13.374;2023-04-07T09:31:53;101446.72;;;6.54;48.28
67015;BME280;1033;52.560;13.374;2023-04-07T09:34:27;101434.63;;;6.59;47.91
67015;BME280;1033;52.560;13.374;2023-04-07T09:36:56;101449.03;;;6.41;47.85
67015;BME280;1033;52.560;13.374;2023-04-07T09:39:26;101450.50;;;6.36;47.15
67015;BME280;1033;52.560;13.374;2023-04-07T09:41:55;101449.66;;;6.35;47.64
67015;BME280;1033;52.560;13.374;2023-04-07T09:44:25;101459.63;;;6.43;47.11
67015;BME280;1033;52.560;13.374;2023-04-07T09:46:56;101453.34;;;6.34;47.87
67015;BME280;1033;52.560;13.374;2023-04-07T09:49:26;101450.47;;;6.62;47.30
67015;BME280;1033;52.560;13.374;2023-04-07T09:51:56;101445.06;;;6.62;47.40
67015;BME280;1033;52.560;13.374;2023-04-07T09:54:34;101452.09;;;6.54;47.43
67015;BME280;1033;52.560;13.374;2023-04-07T09:57:05;101448.06;;;6.50;47.38
67015;BME280;1033;52.560;13.374;2023-04-07T09:59:36;101448.13;;;6.67;46.48
67015;BME280;1033;52.560;13.374;2023-04-07T10:02:06;101448.66;;;6.36;47.36
67015;BME280;1033;52.560;13.374;2023-04-07T10:04:39;101453.13;;;6.20;47.97
67015;BME280;1033;52.560;13.374;2023-04-07T10:07:08;101455.66;;;6.21;47.98
67015;BME280;1033;52.560;13.374;2023-04-07T10:09:37;101454.88;;;6.29;47.68
67015;BME280;1033;52.560;13.374;2023-04-07T10:12:06;101452.00;;;6.30;47.53
67015;BME280;1033;52.560;13.374;2023-04-07T10:14:36;101452.97;;;6.21;47.98
67015;BME280;1033;52.560;13.374;2023-04-07T10:17:07;101449.41;;;6.13;47.89
67015;BME280;1033;52.560;13.374;2023-04-07T10:19:38;101453.47;;;6.25;48.59
67015;BME280;1033;52.560;13.374;2023-04-07T10:22:07;101456.84;;;6.27;49.00
67015;BME280;1033;52.560;13.374;2023-04-07T10:24:43;101451.94;;;6.56;48.30
67015;BME280;1033;52.560;13.374;2023-04-07T10:27:18;101465.53;;;6.46;48.73
67015;BME280;1033;52.560;13.374;2023-04-07T10:29:51;101460.16;;;6.54;48.95
67015;BME280;1033;52.560;13.374;2023-04-07T10:32:20;101462.19;;;6.52;49.45
67015;BME280;1033;52.560;13.374;2023-04-07T10:34:58;101455.84;;;6.62;50.00
67015;BME280;1033;52.560;13.374;2023-04-07T10:37:27;101459.81;;;6.49;50.59
67015;BME280;1033;52.560;13.374;2023-04-07T10:40:27;101459.06;;;6.31;51.96
67015;BME280;1033;52.560;13.374;2023-04-07T10:42:57;101457.91;;;6.34;52.78
67015;BME280;1033;52.560;13.374;2023-04-07T10:45:54;101452.47;;;6.60;53.51
67015;BME280;1033;52.560;13.374;2023-04-07T10:48:26;101450.88;;;6.41;54.15
67015;BME280;1033;52.560;13.374;2023-04-07T10:51:17;101452.06;;;6.46;54.55
67015;BME280;1033;52.560;13.374;2023-04-07T10:54:14;101457.81;;;6.51;56.15
67015;BME280;1033;52.560;13.374;2023-04-07T10:57:08;101458.72;;;6.34;57.93
67015;BME280;1033;52.560;13.374;2023-04-07T10:59:40;101451.63;;;6.25;59.25
67015;BME280;1033;52.560;13.374;2023-04-07T11:02:32;101451.59;;;6.17;61.59
67015;BME280;1033;52.560;13.374;2023-04-07T11:05:03;101448.16;;;5.99;63.80
67015;BME280;1033;52.560;13.374;2023-04-07T11:07:53;101452.25;;;5.67;64.72
67015;BME280;1033;52.560;13.374;2023-04-07T11:10:29;101454.06;;;5.85;66.49
67015;BME280;1033;52.560;13.374;2023-04-07T11:13:24;101458.06;;;5.98;67.70
67015;BME280;1033;52.560;13.374;2023-04-07T11:15:53;101455.25;;;6.08;69.55
67015;BME280;1033;52.560;13.374;2023-04-07T11:18:22;101452.19;;;6.29;69.36
67015;BME280;1033;52.560;13.374;2023-04-07T11:20:52;101451.44;;;6.52;70.65
67015;BME280;1033;52.560;13.374;2023-04-07T11:23:24;101446.50;;;6.98;68.14
67015;BME280;1033;52.560;13.374;2023-04-07T11:25:59;101446.94;;;6.27;70.75
67015;BME280;1033;52.560;13.374;2023-04-07T11:28:29;101438.19;;;6.25;74.15
67015;BME280;1033;52.560;13.374;2023-04-07T11:30:58;101446.94;;;6.27;76.37
67015;BME280;1033;52.560;13.374;2023-04-07T11:33:30;101448.94;;;6.25;77.99
67015;BME280;1033;52.560;13.374;2023-04-07T11:36:02;101447.19;;;6.08;78.56
67015;BME280;1033;52.560;13.374;2023-04-07T11:38:36;101442.72;;;5.91;81.93
67015;BME280;1033;52.560;13.374;2023-04-07T11:41:13;101450.75;;;5.91;83.21
67015;BME280;1033;52.560;13.374;2023-04-07T11:43:42;101444.75;;;5.71;84.71
67015;BME280;1033;52.560;13.374;2023-04-07T11:46:12;101441.09;;;5.54;86.16
67015;BME280;1033;52.560;13.374;2023-04-07T11:48:43;101435.84;;;5.71;87.02
67015;BME280;1033;52.560;13.374;2023-04-07T11:51:17;101438.22;;;5.74;86.65
67015;BME280;1033;52.560;13.374;2023-04-07T11:53:54;101445.16;;;5.58;86.32
67015;BME280;1033;52.560;13.374;2023-04-07T11:56:24;101444.78;;;5.53;87.85
67015;BME280;1033;52.560;13.374;2023-04-07T11:58:55;101443.63;;;5.38;88.34
67015;BME280;1033;52.560;13.374;2023-04-07T12:01:39;101438.66;;;5.43;88.74
67015;BME280;1033;52.560;13.374;2023-04-07T12:04:12;101440.41;;;5.52;89.34
67015;BME280;1033;52.560;13.374;2023-04-07T12:06:43;101440.84;;;5.65;90.16
67015;BME280;1033;52.560;13.374;2023-04-07T12:09:29;101441.53;;;5.67;90.43
67015;BME280;1033;52.560;13.374;2023-04-07T12:11:59;101448.53;;;5.60;90.52
67015;BME280;1033;52.560;13.374;2023-04-07T12:14:33;101444.91;;;5.52;89.61
67015;BME280;1033;52.560;13.374;2023-04-07T12:17:03;101446.50;;;5.62;89.85
67015;BME280;1033;52.560;13.374;2023-04-07T12:19:35;101437.78;;;5.60;89.75
67015;BME280;1033;52.560;13.374;2023-04-07T12:22:06;101443.47;;;5.57;88.83
67015;BME280;1033;52.560;13.374;2023-04-07T12:24:38;101439.41;;;5.53;89.86
67015;BME280;1033;52.560;13.374;2023-04-07T12:27:08;101440.03;;;5.47;91.63
67015;BME280;1033;52.560;13.374;2023-04-07T12:29:37;101442.94;;;5.54;91.90
67015;BME280;1033;52.560;13.374;2023-04-07T12:32:06;101440.16;;;5.63;91.79
67015;BME280;1033;52.560;13.374;2023-04-07T12:34:35;101441.22;;;5.71;90.99
67015;BME280;1033;52.560;13.374;2023-04-07T12:37:04;101436.94;;;5.60;91.54
67015;BME280;1033;52.560;13.374;2023-04-07T12:39:33;101438.09;;;5.57;91.62
67015;BME280;1033;52.560;13.374;2023-04-07T12:42:03;101439.78;;;5.58;90.82
67015;BME280;1033;52.560;13.374;2023-04-07T12:44:34;101440.47;;;5.60;91.65
67015;BME280;1033;52.560;13.374;2023-04-07T12:47:03;101435.06;;;5.78;91.46
67015;BME280;1033;52.560;13.374;2023-04-07T12:49:32;101446.03;;;5.85;92.03
67015;BME280;1033;52.560;13.374;2023-04-07T12:52:01;101437.78;;;5.60;92.49
67015;BME280;1033;52.560;13.374;2023-04-07T12:54:30;101439.31;;;5.63;92.33
67015;BME280;1033;52.560;13.374;2023-04-07T12:56:59;101438.78;;;5.59;92.21
67015;BME280;1033;52.560;13.374;2023-04-07T12:59:29;101439.34;;;5.89;91.11
67015;BME280;1033;52.560;13.374;2023-04-07T13:01:58;101434.66;;;5.91;89.73
67015;BME280;1033;52.560;13.374;2023-04-07T13:04:27;101432.41;;;5.86;88.89
67015;BME280;1033;52.560;13.374;2023-04-07T13:06:58;101433.59;;;5.84;89.61
67015;BME280;1033;52.560;13.374;2023-04-07T13:09:29;101437.25;;;5.83;89.04
67015;BME280;1033;52.560;13.374;2023-04-07T13:11:58;101438.84;;;5.67;90.24
67015;BME280;1033;52.560;13.374;2023-04-07T13:14:31;101428.75;;;5.61;90.91
67015;BME280;1033;52.560;13.374;2023-04-07T13:17:00;101434.13;;;5.61;90.83
67015;BME280;1033;52.560;13.374;2023-04-07T13:19:29;101436.41;;;6.00;90.99
67015;BME280;1033;52.560;13.374;2023-04-07T13:21:58;101432.88;;;5.82;90.05
67015;BME280;1033;52.560;13.374;2023-04-07T13:24:32;101425.84;;;5.81;90.15